Time;durP1;ratioP1;P1;durP2;ratioP2;P2;SDS_P1;SDS_P2;PMS_P1;PMS_P2;Temp;Humidity;BMP_temperature;BMP_pressure;BME280_temperature;BME280_humidity;BME280_pressure;Samples;Min_cycle;Max_cycle;Signal;HPM_P1;HPM_P2
2022/07/04 00:01:13;;;;;;;;;;;;;;;22.22;44.07;99893.16;3158157;28;19928;-66
2022/07/04 00:02:46;;;;;;;;;;;;;;;22.23;43.94;99897.47;3158230;28;19985;-66
2022/07/04 00:04:17;;;;;;;;;;;;;;;22.23;43.83;99893.00;3157877;28;19924;-66
2022/07/04 00:05:48;;;;;;;;;;;;;;;22.24;44.02;99897.34;3158033;28;20458;-67
2022/07/04 00:07:20;;;;;;;;;;;;;;;22.22;44.13;99895.81;3159583;28;20031;-66
2022/07/04 00:08:51;;;;;;;;;;;;;;;22.18;44.38;99889.09;3158006;28;19959;-66
2022/07/04 00:10:23;;;;;;;;;;;;;;;22.15;44.28;99892.00;3157866;28;19924;-66
2022/07/04 00:11:55;;;;;;;;;;;;;;;22.13;44.29;99891.31;3157840;28;19924;-66
2022/07/04 00:13:27;;;;;;;;;;;;;;;22.09;44.50;99889.91;3157886;28;19924;-66
2022/07/04 00:14:58;;;;;;;;;;;;;;;22.01;44.52;99882.66;3158088;28;20015;-66
2022/07/04 00:16:30;;;;;;;;;;;;;;;21.96;44.75;99880.44;3157664;28;19928;-66
2022/07/04 00:18:01;;;;;;;;;;;;;;;21.95;44.79;99877.94;3157606;28;19935;-66
2022/07/04 00:19:32;;;;;;;;;;;;;;;21.93;44.72;99875.41;3158283;28;19923;-66
2022/07/04 00:21:04;;;;;;;;;;;;;;;21.95;44.67;99878.75;3157940;28;20064;-66
2022/07/04 00:22:35;;;;;;;;;;;;;;;21.98;44.51;99878.47;3157551;28;19936;-66
2022/07/04 00:24:07;;;;;;;;;;;;;;;22.03;44.37;99876.22;3158277;28;19924;-66
2022/07/04 00:25:39;;;;;;;;;;;;;;;22.07;44.36;99874.16;3157738;28;20265;-66
2022/07/04 00:27:10;;;;;;;;;;;;;;;22.13;44.02;99880.72;3157392;28;19924;-66
2022/07/04 00:28:43;;;;;;;;;;;;;;;22.16;44.11;99869.81;3157809;28;19936;-66
2022/07/04 00:30:15;;;;;;;;;;;;;;;22.19;43.89;99878.34;3157495;28;19924;-66
2022/07/04 00:31:47;;;;;;;;;;;;;;;22.21;43.77;99868.44;3157916;28;20008;-66
2022/07/04 00:33:17;;;;;;;;;;;;;;;22.22;43.69;99871.94;3157764;28;19947;-66
2022/07/04 00:34:49;;;;;;;;;;;;;;;22.23;43.83;99863.81;3158118;28;19987;-66
2022/07/04 00:36:20;;;;;;;;;;;;;;;22.24;43.66;99864.66;3157807;28;20374;-66
2022/07/04 00:37:52;;;;;;;;;;;;;;;22.24;43.84;99857.53;3158072;28;19931;-66
2022/07/04 00:39:24;;;;;;;;;;;;;;;22.26;43.70;99871.47;3157902;28;19997;-66
2022/07/04 00:40:55;;;;;;;;;;;;;;;22.22;43.97;99854.19;3158101;28;19924;-66
2022/07/04 00:42:27;;;;;;;;;;;;;;;22.29;44.01;99862.41;3158223;28;19993;-66
2022/07/04 00:44:03;;;;;;;;;;;;;;;22.29;43.95;99857.09;3157522;28;19924;-67
2022/07/04 00:45:35;;;;;;;;;;;;;;;22.31;43.89;99860.47;3157676;28;19947;-66
2022/07/04 00:47:07;;;;;;;;;;;;;;;22.31;44.09;99856.97;3157689;28;19994;-66
2022/07/04 00:48:39;;;;;;;;;;;;;;;22.27;44.43;99856.41;3157794;28;20294;-66
2022/07/04 00:50:10;;;;;;;;;;;;;;;22.22;44.73;99858.66;3158003;28;19924;-66
2022/07/04 00:51:43;;;;;;;;;;;;;;;22.18;44.67;99858.13;3157871;28;19928;-66
2022/07/04 00:53:15;;;;;;;;;;;;;;;22.20;44.53;99863.28;3157881;28;19931;-66
2022/07/04 00:54:46;;;;;;;;;;;;;;;22.20;44.49;99857.97;3158065;28;19999;-66
2022/07/04 00:56:18;;;;;;;;;;;;;;;22.21;44.80;99856.97;3157572;28;19936;-65
2022/07/04 00:57:49;;;;;;;;;;;;;;;22.22;44.41;99859.50;3157893;28;19935;-66
2022/07/04 00:59:23;;;;;;;;;;;;;;;22.22;44.55;99850.72;3157726;28;19924;-66
2022/07/04 01:00:54;;;;;;;;;;;;;;;22.21;44.86;99851.66;3157722;28;20428;-66
2022/07/04 01:02:25;;;;;;;;;;;;;;;22.18;45.02;99851.94;3157678;28;20298;-66
2022/07/04 01:03:57;;;;;;;;;;;;;;;22.16;45.10;99848.59;3157562;28;20054;-66
2022/07/04 01:05:28;;;;;;;;;;;;;;;22.15;44.98;99846.91;3157648;28;20466;-66
2022/07/04 01:06:59;;;;;;;;;;;;;;;22.13;45.13;99848.88;3158019;28;20324;-66
2022/07/04 01:08:30;;;;;;;;;;;;;;;22.08;45.44;99848.47;3159204;28;19925;-66
2022/07/04 01:10:02;;;;;;;;;;;;;;;22.04;45.29;99834.66;3156924;28;19947;-67
2022/07/04 01:11:34;;;;;;;;;;;;;;;22.07;45.27;99846.81;3157984;28;19935;-66
2022/07/04 01:13:05;;;;;;;;;;;;;;;22.10;45.13;99841.22;3157842;28;19924;-66
2022/07/04 01:14:39;;;;;;;;;;;;;;;22.10;45.17;99843.88;3157343;28;19924;-66
2022/07/04 01:16:12;;;;;;;;;;;;;;;22.10;45.14;99841.22;3157903;28;19924;-66
2022/07/04 01:17:43;;;;;;;;;;;;;;;22.11;45.28;99840.22;3156999;28;20001;-66
2022/07/04 01:19:14;;;;;;;;;;;;;;;22.12;45.24;99842.72;3157563;28;20514;-66
2022/07/04 01:20:47;;;;;;;;;;;;;;;22.12;45.67;99845.38;3157894;28;19989;-65
2022/07/04 01:22:20;;;;;;;;;;;;;;;22.08;46.21;99845.81;3157484;28;19986;-66
2022/07/04 01:23:52;;;;;;;;;;;;;;;22.08;45.80;99833.38;3157741;28;19930;-66
2022/07/04 01:25:23;;;;;;;;;;;;;;;22.07;46.80;99839.69;3154177;28;19931;-66
2022/07/04 01:26:55;;;;;;;;;;;;;;;21.99;46.96;99842.19;3158975;28;19927;-66
2022/07/04 01:28:27;;;;;;;;;;;;;;;21.96;46.92;99830.06;3158985;28;19954;-66
2022/07/04 01:29:57;;;;;;;;;;;;;;;21.97;46.91;99830.88;3159347;28;19981;-66
2022/07/04 01:31:29;;;;;;;;;;;;;;;21.94;47.30;99826.69;3159847;28;20019;-66
2022/07/04 01:33:00;;;;;;;;;;;;;;;21.92;47.04;99823.38;3160045;28;19924;-66
2022/07/04 01:34:32;;;;;;;;;;;;;;;21.95;47.17;99833.69;3159879;28;19924;-66
2022/07/04 01:36:05;;;;;;;;;;;;;;;21.97;46.99;99823.75;3159720;28;20001;-66
2022/07/04 01:37:37;;;;;;;;;;;;;;;21.99;46.89;99819.16;3159568;28;19946;-66
2022/07/04 01:39:08;;;;;;;;;;;;;;;22.00;46.79;99817.34;3159810;28;20465;-66
2022/07/04 01:40:39;;;;;;;;;;;;;;;21.97;47.13;99814.97;3159687;28;19947;-66
2022/07/04 01:42:11;;;;;;;;;;;;;;;21.97;47.17;99813.16;3159874;28;19924;-66
2022/07/04 01:43:42;;;;;;;;;;;;;;;21.97;47.08;99818.44;3159326;28;19981;-66
2022/07/04 01:45:14;;;;;;;;;;;;;;;21.97;47.27;99817.63;3159829;28;20045;-66
2022/07/04 01:46:45;;;;;;;;;;;;;;;21.95;47.39;99809.81;3166487;28;19981;-66
2022/07/04 01:48:17;;;;;;;;;;;;;;;21.97;47.08;99815.81;3159218;28;19939;-66
2022/07/04 01:49:48;;;;;;;;;;;;;;;21.97;46.99;99815.81;3159602;28;19924;-66
2022/07/04 01:51:21;;;;;;;;;;;;;;;21.98;47.01;99814.84;3159936;28;19936;-66
2022/07/04 01:52:53;;;;;;;;;;;;;;;21.99;47.17;99816.50;3159534;28;19924;-66
2022/07/04 01:54:24;;;;;;;;;;;;;;;21.99;47.31;99815.69;3159468;28;20001;-66
2022/07/04 01:55:56;;;;;;;;;;;;;;;21.96;47.08;99819.44;3159309;28;19928;-66
2022/07/04 01:57:28;;;;;;;;;;;;;;;21.95;46.82;99824.91;3159341;28;19928;-66
2022/07/04 01:59:01;;;;;;;;;;;;;;;21.95;47.09;99817.78;3159491;28;19927;-66
2022/07/04 02:02:21;;;;;;;;;;;;;;;21.93;46.81;99816.25;3159528;28;19924;-66
2022/07/04 02:03:52;;;;;;;;;;;;;;;21.91;46.88;99823.50;3159204;28;20419;-66
2022/07/04 02:05:24;;;;;;;;;;;;;;;21.91;46.79;99828.81;3159270;28;19928;-66
2022/07/04 02:06:57;;;;;;;;;;;;;;;21.93;46.70;99826.84;3159774;28;19931;-66
2022/07/04 02:09:14;;;;;;;;;;;;;;;21.94;46.79;99828.50;3160662;28;20382;-66
2022/07/04 02:10:20;;;;;;;;;;;;;;;21.96;46.42;99819.44;3159146;28;19924;-66
2022/07/04 02:13:40;;;;;;;;;;;;;;;22.00;46.38;99822.66;3159385;28;20113;-66
2022/07/04 02:15:11;;;;;;;;;;;;;;;22.03;46.48;99823.19;3159252;28;19931;-66
2022/07/04 02:16:42;;;;;;;;;;;;;;;22.03;46.45;99828.50;3159266;28;19924;-66
2022/07/04 02:18:14;;;;;;;;;;;;;;;22.06;46.25;99834.50;3158964;28;19988;-66
2022/07/04 02:19:45;;;;;;;;;;;;;;;22.08;46.24;99824.59;3159082;28;19973;-66
2022/07/04 02:21:17;;;;;;;;;;;;;;;22.09;46.13;99831.56;3159014;28;20328;-66
2022/07/04 02:22:50;;;;;;;;;;;;;;;22.10;46.24;99836.75;3159047;28;20702;-66
2022/07/04 02:24:22;;;;;;;;;;;;;;;22.13;46.32;99830.31;3159026;28;20290;-66
2022/07/04 02:25:53;;;;;;;;;;;;;;;22.14;46.14;99831.97;3158749;28;20269;-66
2022/07/04 02:27:25;;;;;;;;;;;;;;;22.16;46.19;99832.69;3159006;28;20004;-66
2022/07/04 02:28:55;;;;;;;;;;;;;;;22.18;46.25;99836.03;3159099;28;19928;-66
2022/07/04 02:30:27;;;;;;;;;;;;;;;22.17;46.31;99834.38;3158986;28;19928;-66
2022/07/04 02:31:58;;;;;;;;;;;;;;;22.20;46.38;99834.09;3158981;28;19924;-65
2022/07/04 02:33:30;;;;;;;;;;;;;;;22.17;46.32;99832.56;3158926;28;19924;-66
2022/07/04 02:35:02;;;;;;;;;;;;;;;22.14;46.42;99839.94;3159134;28;19924;-66
2022/07/04 02:36:33;;;;;;;;;;;;;;;22.12;46.57;99842.72;3158954;28;19924;-66
2022/07/04 02:38:06;;;;;;;;;;;;;;;22.12;46.39;99845.38;3158655;28;20330;-66
2022/07/04 02:39:38;;;;;;;;;;;;;;;22.12;46.49;99848.03;3159093;28;19924;-66
2022/07/04 02:41:10;;;;;;;;;;;;;;;22.09;46.66;99852.78;3159287;28;19928;-66
2022/07/04 02:42:41;;;;;;;;;;;;;;;22.09;46.52;99850.97;3158811;28;19924;-66
2022/07/04 02:44:13;;;;;;;;;;;;;;;22.08;46.72;99859.06;3159140;28;19935;-66
2022/07/04 02:45:44;;;;;;;;;;;;;;;22.03;46.55;99860.31;3161056;28;19928;-66
2022/07/04 02:47:15;;;;;;;;;;;;;;;22.02;46.85;99850.69;3163289;28;20023;-66
2022/07/04 02:48:46;;;;;;;;;;;;;;;21.99;46.88;99855.44;3159068;28;19930;-66
2022/07/04 02:50:18;;;;;;;;;;;;;;;21.96;46.80;99853.91;3158862;28;19924;-66
2022/07/04 02:51:49;;;;;;;;;;;;;;;21.96;46.61;99853.09;3158578;28;19928;-66
2022/07/04 02:53:22;;;;;;;;;;;;;;;21.96;46.86;99863.69;3158795;28;20409;-66
2022/07/04 02:54:54;;;;;;;;;;;;;;;21.92;46.99;99863.13;3158663;28;19928;-66
2022/07/04 02:56:25;;;;;;;;;;;;;;;21.91;47.01;99869.41;3158803;28;19924;-66
2022/07/04 02:57:56;;;;;;;;;;;;;;;21.90;47.24;99862.44;3158928;28;19928;-66
2022/07/04 02:59:27;;;;;;;;;;;;;;;21.90;47.26;99861.59;3158434;28;19924;-67
2022/07/04 03:00:58;;;;;;;;;;;;;;;21.86;47.17;99863.69;3158940;28;19928;-66
2022/07/04 03:02:30;;;;;;;;;;;;;;;21.88;47.00;99866.19;3158923;28;19924;-66
2022/07/04 03:04:02;;;;;;;;;;;;;;;21.87;47.01;99873.31;3158401;28;20359;-66
2022/07/04 03:05:34;;;;;;;;;;;;;;;21.88;47.48;99869.69;3158489;28;20018;-67
2022/07/04 03:07:05;;;;;;;;;;;;;;;21.86;47.23;99869.00;3159360;28;20358;-66
2022/07/04 03:08:38;;;;;;;;;;;;;;;21.86;47.38;99876.97;3159621;28;20022;-66
2022/07/04 03:10:10;;;;;;;;;;;;;;;21.85;47.38;99875.25;3158563;28;19931;-66
2022/07/04 03:11:42;;;;;;;;;;;;;;;21.83;47.63;99879.88;3158403;28;19928;-66
2022/07/04 03:13:13;;;;;;;;;;;;;;;21.79;47.58;99878.47;3158173;28;19924;-66
2022/07/04 03:14:45;;;;;;;;;;;;;;;21.78;47.64;99880.28;3158751;28;19936;-66
2022/07/04 03:16:16;;;;;;;;;;;;;;;21.76;47.81;99879.59;3158726;28;19924;-66
2022/07/04 03:17:48;;;;;;;;;;;;;;;21.76;47.98;99879.59;3157589;28;20268;-66
2022/07/04 03:19:19;;;;;;;;;;;;;;;21.71;48.15;99868.59;3154710;28;19928;-66
2022/07/04 03:20:51;;;;;;;;;;;;;;;21.70;47.96;99876.66;3158630;28;19924;-66
2022/07/04 03:22:23;;;;;;;;;;;;;;;21.70;48.26;99876.66;3158066;28;19924;-66
2022/07/04 03:23:58;;;;;;;;;;;;;;;21.62;48.47;99879.16;3158483;28;19935;-66
2022/07/04 03:25:30;;;;;;;;;;;;;;;21.62;48.25;99872.03;3158056;28;19932;-66
2022/07/04 03:27:01;;;;;;;;;;;;;;;21.57;48.90;99874.28;3159850;28;19973;-66
2022/07/04 03:28:33;;;;;;;;;;;;;;;21.41;49.38;99868.69;3158213;28;20000;-66
2022/07/04 03:30:05;;;;;;;;;;;;;;;21.28;49.78;99869.75;3158120;28;20305;-66
2022/07/04 03:31:37;;;;;;;;;;;;;;;21.16;50.21;99868.19;3158417;28;20015;-66
2022/07/04 03:33:07;;;;;;;;;;;;;;;21.10;50.38;99866.91;3158440;28;19939;-66
2022/07/04 03:34:39;;;;;;;;;;;;;;;21.07;50.13;99864.53;3158095;28;20416;-66
2022/07/04 03:36:11;;;;;;;;;;;;;;;21.10;50.28;99860.78;3158011;28;19928;-66
2022/07/04 03:37:42;;;;;;;;;;;;;;;21.10;50.13;99872.22;3158536;28;19928;-66
2022/07/04 03:39:15;;;;;;;;;;;;;;;21.12;50.44;99872.91;3158333;28;19924;-66
2022/07/04 03:40:47;;;;;;;;;;;;;;;21.11;50.83;99868.56;3157965;28;19924;-66
2022/07/04 03:42:18;;;;;;;;;;;;;;;21.07;50.51;99859.25;3158300;28;19932;-66
2022/07/04 03:43:49;;;;;;;;;;;;;;;21.06;51.05;99867.31;3158011;28;20417;-66
2022/07/04 03:45:20;;;;;;;;;;;;;;;21.00;51.16;99859.91;3157883;28;19924;-66
2022/07/04 03:46:52;;;;;;;;;;;;;;;20.99;51.08;99853.78;3165218;28;20302;-66
2022/07/04 03:48:23;;;;;;;;;;;;;;;20.97;51.30;99863.69;3157738;28;19924;-66
2022/07/04 03:49:55;;;;;;;;;;;;;;;20.97;51.12;99855.75;3158243;28;20294;-66
2022/07/04 03:51:27;;;;;;;;;;;;;;;20.97;51.20;99863.69;3157458;28;19924;-67
2022/07/04 03:52:58;;;;;;;;;;;;;;;20.92;51.70;99857.13;3157994;28;19923;-66
2022/07/04 03:54:31;;;;;;;;;;;;;;;20.92;51.48;99862.41;3158120;28;20403;-66
2022/07/04 03:56:03;;;;;;;;;;;;;;;20.89;51.68;99861.69;3157932;28;20052;-66
2022/07/04 03:57:34;;;;;;;;;;;;;;;20.88;51.37;99859.16;3157805;28;19935;-67
2022/07/04 03:59:06;;;;;;;;;;;;;;;20.90;51.17;99862.53;3157953;28;20392;-66
2022/07/04 04:00:37;;;;;;;;;;;;;;;20.93;51.09;99864.06;3158095;28;20403;-66
2022/07/04 04:02:09;;;;;;;;;;;;;;;20.93;51.25;99859.59;3157799;28;19928;-66
2022/07/04 04:05:30;;;;;;;;;;;;;;;20.90;51.49;99866.00;3157795;28;19924;-66
2022/07/04 04:07:02;;;;;;;;;;;;;;;20.88;51.89;99856.50;3145926;28;19931;-66
2022/07/04 04:08:32;;;;;;;;;;;;;;;20.85;52.02;99862.06;3159251;28;19924;-66
2022/07/04 04:10:06;;;;;;;;;;;;;;;20.85;51.88;99859.44;3157684;28;20074;-66
2022/07/04 04:11:38;;;;;;;;;;;;;;;20.83;52.04;99856.09;3158002;28;19932;-67
2022/07/04 04:13:09;;;;;;;;;;;;;;;20.83;52.14;99861.41;3158061;28;20012;-66
2022/07/04 04:14:41;;;;;;;;;;;;;;;20.85;52.23;99857.66;3157204;28;19946;-66
2022/07/04 04:16:13;;;;;;;;;;;;;;;20.84;52.25;99863.06;3157948;28;19947;-66
2022/07/04 04:17:44;;;;;;;;;;;;;;;20.83;52.41;99862.22;3157760;28;19955;-66
2022/07/04 04:19:16;;;;;;;;;;;;;;;20.81;52.44;99860.69;3157766;28;20385;-66
2022/07/04 04:20:47;;;;;;;;;;;;;;;20.84;52.60;99861.25;3157882;28;19928;-66
2022/07/04 04:22:19;;;;;;;;;;;;;;;20.83;52.60;99859.59;3157586;28;20328;-66
2022/07/04 04:23:50;;;;;;;;;;;;;;;20.83;52.78;99864.88;3157856;28;19924;-66
2022/07/04 04:25:22;;;;;;;;;;;;;;;20.83;52.40;99862.22;3157683;28;20005;-66
2022/07/04 04:26:54;;;;;;;;;;;;;;;20.87;52.40;99860.16;3157775;28;20265;-67
2022/07/04 04:28:26;;;;;;;;;;;;;;;20.89;52.10;99864.34;3157731;28;19932;-66
2022/07/04 04:29:57;;;;;;;;;;;;;;;20.91;52.36;99858.91;3157422;28;19928;-66
2022/07/04 04:31:30;;;;;;;;;;;;;;;20.93;52.22;99862.25;3157207;28;19928;-67
2022/07/04 04:33:02;;;;;;;;;;;;;;;20.96;52.12;99864.63;3158021;28;19924;-67
2022/07/04 04:34:34;;;;;;;;;;;;;;;20.98;52.18;99865.34;3157790;28;19978;-67
2022/07/04 04:36:05;;;;;;;;;;;;;;;20.99;52.08;99867.00;3157675;28;19924;-66
2022/07/04 04:37:36;;;;;;;;;;;;;;;21.01;52.29;99862.44;3157615;28;19946;-66
2022/07/04 04:39:08;;;;;;;;;;;;;;;21.04;52.08;99869.28;3157638;28;19978;-67
2022/07/04 04:40:41;;;;;;;;;;;;;;;21.09;51.96;99872.34;3157512;28;19928;-66
2022/07/04 04:42:12;;;;;;;;;;;;;;;21.16;51.49;99870.00;3157991;28;20331;-66
2022/07/04 04:43:44;;;;;;;;;;;;;;;21.21;51.51;99873.06;3157995;28;20410;-66
2022/07/04 04:45:15;;;;;;;;;;;;;;;21.18;51.44;99862.75;3157938;28;19932;-66
2022/07/04 04:46:47;;;;;;;;;;;;;;;21.32;51.30;99872.94;3164946;28;19924;-66
2022/07/04 04:48:19;;;;;;;;;;;;;;;21.34;51.34;99879.78;3157853;28;20444;-66
2022/07/04 04:49:50;;;;;;;;;;;;;;;21.40;51.08;99875.78;3157790;28;19934;-66
2022/07/04 04:51:22;;;;;;;;;;;;;;;21.45;51.23;99878.03;3158131;28;20400;-66
2022/07/04 04:52:54;;;;;;;;;;;;;;;21.49;50.92;99882.09;3158569;28;20680;-66
2022/07/04 04:54:25;;;;;;;;;;;;;;;21.55;50.86;99873.59;3157734;28;19924;-67
2022/07/04 04:55:58;;;;;;;;;;;;;;;21.64;50.64;99879.88;3157647;28;19993;-67
2022/07/04 04:57:30;;;;;;;;;;;;;;;21.71;50.63;99876.53;3157421;28;20462;-67
2022/07/04 04:59:01;;;;;;;;;;;;;;;21.80;50.24;99883.66;3158036;28;19924;-68
2022/07/04 05:00:33;;;;;;;;;;;;;;;21.88;50.34;99882.94;3157656;28;20133;-67
2022/07/04 05:02:05;;;;;;;;;;;;;;;21.95;50.00;99873.47;3157653;28;20382;-67
2022/07/04 05:03:37;;;;;;;;;;;;;;;22.00;49.81;99875.69;3159158;28;19940;-67
2022/07/04 05:05:08;;;;;;;;;;;;;;;22.05;49.60;99876.09;3159895;28;20401;-67
2022/07/04 05:06:40;;;;;;;;;;;;;;;22.07;49.55;99875.97;3159699;28;20261;-67
2022/07/04 05:08:12;;;;;;;;;;;;;;;22.07;49.46;99875.97;3161725;28;20320;-67
2022/07/04 05:09:43;;;;;;;;;;;;;;;22.09;49.69;99877.47;3159409;28;19924;-67
2022/07/04 05:11:16;;;;;;;;;;;;;;;22.12;49.54;99876.38;3157780;28;19931;-67
2022/07/04 05:12:48;;;;;;;;;;;;;;;22.15;49.50;99868.94;3160776;28;19978;-67
2022/07/04 05:14:19;;;;;;;;;;;;;;;22.17;49.49;99877.66;3159560;28;19928;-67
2022/07/04 05:15:51;;;;;;;;;;;;;;;22.19;49.21;99875.69;3160038;28;20321;-67
2022/07/04 05:17:23;;;;;;;;;;;;;;;22.25;49.34;99866.34;3160269;28;19924;-67
2022/07/04 05:18:54;;;;;;;;;;;;;;;22.31;49.19;99873.72;3159983;28;19928;-68
2022/07/04 05:20:26;;;;;;;;;;;;;;;22.37;49.10;99872.31;3168390;28;19931;-68
2022/07/04 05:21:58;;;;;;;;;;;;;;;22.41;48.58;99869.22;3163215;28;20023;-66
2022/07/04 05:23:29;;;;;;;;;;;;;;;22.43;48.31;99872.56;3159413;28;19935;-64
2022/07/04 05:25:01;;;;;;;;;;;;;;;22.47;48.33;99871.28;3160257;28;19950;-67
2022/07/04 05:26:34;;;;;;;;;;;;;;;22.52;48.00;99862.91;3159649;28;19925;-67
2022/07/04 05:28:05;;;;;;;;;;;;;;;22.59;48.16;99863.16;3159614;28;19933;-67
2022/07/04 05:29:37;;;;;;;;;;;;;;;22.67;47.83;99861.47;3159514;28;20340;-67
2022/07/04 05:31:09;;;;;;;;;;;;;;;22.78;47.55;99859.63;3159739;28;20160;-67
2022/07/04 05:32:40;;;;;;;;;;;;;;;22.86;47.56;99857.88;3159805;28;19928;-67
2022/07/04 05:34:12;;;;;;;;;;;;;;;22.94;46.96;99860.66;3159835;28;19963;-67
2022/07/04 05:35:44;;;;;;;;;;;;;;;23.02;47.02;99862.59;3159705;28;19931;-67
2022/07/04 05:37:15;;;;;;;;;;;;;;;23.05;46.73;99853.50;3159751;28;19924;-67
2022/07/04 05:38:47;;;;;;;;;;;;;;;23.18;46.71;99861.94;3159661;28;19931;-67
2022/07/04 05:40:21;;;;;;;;;;;;;;;23.27;46.35;99861.03;3159623;28;20393;-67
2022/07/04 05:41:54;;;;;;;;;;;;;;;23.36;46.16;99860.16;3159753;28;20616;-67
2022/07/04 05:43:25;;;;;;;;;;;;;;;23.46;45.86;99859.28;3159663;28;19924;-67
2022/07/04 05:44:57;;;;;;;;;;;;;;;23.58;45.90;99860.72;3159957;28;19967;-67
2022/07/04 05:46:29;;;;;;;;;;;;;;;23.69;45.26;99855.16;3166873;28;19936;-67
2022/07/04 05:48:00;;;;;;;;;;;;;;;23.78;44.66;99862.28;3159614;28;19971;-67
2022/07/04 05:49:32;;;;;;;;;;;;;;;23.89;44.61;99863.00;3159797;28;19932;-67
2022/07/04 05:51:03;;;;;;;;;;;;;;;23.95;44.57;99860.56;3160095;28;19931;-67
2022/07/04 05:52:35;;;;;;;;;;;;;;;23.98;43.93;99864.75;3159860;28;20018;-66
2022/07/04 05:54:07;;;;;;;;;;;;;;;24.04;43.60;99864.13;3159674;28;20367;-66
2022/07/04 05:55:38;;;;;;;;;;;;;;;24.11;43.44;99867.00;3159267;28;20102;-66
2022/07/04 05:57:11;;;;;;;;;;;;;;;24.16;43.32;99862.03;3159487;28;19925;-66
2022/07/04 05:58:43;;;;;;;;;;;;;;;24.21;43.08;99859.75;3159388;28;19932;-66
2022/07/04 06:00:15;;;;;;;;;;;;;;;24.28;43.05;99859.00;3159120;28;19928;-67
2022/07/04 06:01:46;;;;;;;;;;;;;;;24.34;42.53;99865.50;3159531;28;19924;-67
2022/07/04 06:03:18;;;;;;;;;;;;;;;24.39;42.68;99863.22;3159434;28;20254;-66
2022/07/04 06:04:49;;;;;;;;;;;;;;;24.46;41.91;99861.63;3159656;28;19928;-66
2022/07/04 06:06:21;;;;;;;;;;;;;;;24.56;42.17;99869.50;3158773;28;20316;-66
2022/07/04 06:07:53;;;;;;;;;;;;;;;24.62;41.60;99860.06;3160414;28;20019;-68
2022/07/04 06:09:24;;;;;;;;;;;;;;;24.68;41.30;99862.91;3158979;28;19927;-67
2022/07/04 06:10:56;;;;;;;;;;;;;;;24.76;41.27;99856.81;3159290;28;19935;-67
2022/07/04 06:12:29;;;;;;;;;;;;;;;24.81;41.11;99861.63;3159211;28;19924;-66
2022/07/04 06:14:00;;;;;;;;;;;;;;;24.86;40.95;99854.00;3159166;28;19924;-67
2022/07/04 06:15:32;;;;;;;;;;;;;;;24.92;40.88;99853.38;3146973;28;20455;-67
2022/07/04 06:17:04;;;;;;;;;;;;;;;24.96;40.59;99850.22;3157798;28;20466;-66
2022/07/04 06:18:35;;;;;;;;;;;;;;;25.00;40.58;99848.06;3159405;28;19924;-66
2022/07/04 06:20:08;;;;;;;;;;;;;;;25.05;40.50;99853.72;3159596;28;19946;-66
2022/07/04 06:21:39;;;;;;;;;;;;;;;25.08;40.38;99853.44;3159321;28;20272;-66
2022/07/04 06:23:11;;;;;;;;;;;;;;;25.11;40.24;99846.94;3159607;28;19924;-66
2022/07/04 06:24:41;;;;;;;;;;;;;;;25.13;39.96;99850.28;3159441;28;19924;-67
2022/07/04 06:26:13;;;;;;;;;;;;;;;25.17;39.96;99844.50;3159176;28;20466;-67
2022/07/04 06:27:47;;;;;;;;;;;;;;;25.24;40.27;99836.69;3159515;28;20270;-67
2022/07/04 06:29:18;;;;;;;;;;;;;;;25.28;39.69;99842.50;3159452;28;19981;-67
2022/07/04 06:30:50;;;;;;;;;;;;;;;25.35;39.58;99848.84;3147103;28;19974;-67
2022/07/04 06:32:22;;;;;;;;;;;;;;;25.38;39.09;99837.88;3157872;28;19978;-67
2022/07/04 06:35:54;;;;;;;;;;;;;;;25.52;39.31;99842.56;3158943;28;20374;-67
2022/07/04 06:37:26;;;;;;;;;;;;;;;25.64;39.13;99845.72;3158926;28;19925;-67
2022/07/04 06:38:57;;;;;;;;;;;;;;;25.74;39.39;99851.75;3158979;28;19980;-67
2022/07/04 06:40:28;;;;;;;;;;;;;;;25.81;38.95;99843.91;3158953;28;19924;-67
2022/07/04 06:41:59;;;;;;;;;;;;;;;25.89;38.52;99843.94;3158994;28;20238;-67
2022/07/04 06:43:32;;;;;;;;;;;;;;;25.96;38.44;99841.44;3158844;28;19924;-67
2022/07/04 06:45:04;;;;;;;;;;;;;;;26.03;38.49;99840.63;3159016;28;19927;-67
2022/07/04 06:46:35;;;;;;;;;;;;;;;26.13;38.89;99836.94;3165849;28;19924;-67
2022/07/04 06:48:07;;;;;;;;;;;;;;;26.21;38.60;99831.59;3158666;28;20386;-67
2022/07/04 06:49:39;;;;;;;;;;;;;;;26.31;38.42;99829.56;3158869;28;19928;-67
2022/07/04 06:51:11;;;;;;;;;;;;;;;26.42;37.79;99826.53;3158801;28;19924;-67
2022/07/04 06:52:42;;;;;;;;;;;;;;;26.53;37.75;99828.00;3158491;28;19984;-68
2022/07/04 06:54:14;;;;;;;;;;;;;;;26.59;37.40;99823.81;3158907;28;19928;-67
2022/07/04 06:55:45;;;;;;;;;;;;;;;26.65;37.83;99820.47;3158624;28;19932;-67
2022/07/04 06:57:17;;;;;;;;;;;;;;;26.70;37.72;99813.59;3158510;28;19977;-67
2022/07/04 06:58:50;;;;;;;;;;;;;;;26.76;37.16;99809.41;3158686;28;19924;-67
2022/07/04 07:00:21;;;;;;;;;;;;;;;26.76;37.25;99812.91;3158263;28;20398;-67
2022/07/04 07:01:53;;;;;;;;;;;;;;;26.77;37.35;99809.25;3158709;28;20281;-67
2022/07/04 07:03:25;;;;;;;;;;;;;;;26.82;37.07;99813.22;3154942;28;19928;-67
2022/07/04 07:04:57;;;;;;;;;;;;;;;26.84;37.01;99811.22;3158703;28;19981;-67
2022/07/04 07:06:28;;;;;;;;;;;;;;;26.84;36.32;99812.03;3158605;28;19932;-67
2022/07/04 07:08:00;;;;;;;;;;;;;;;26.84;36.54;99808.53;3159699;28;19951;-67
2022/07/04 07:09:32;;;;;;;;;;;;;;;26.88;36.95;99805.34;3158307;28;19924;-67
2022/07/04 07:11:13;;;;;;;;;;;;;;;26.90;36.02;99808.69;3157207;28;19974;-67
2022/07/04 07:12:44;;;;;;;;;;;;;;;26.92;36.33;99801.31;3167307;28;19928;-68
2022/07/04 07:14:17;;;;;;;;;;;;;;;26.99;36.95;99799.59;3158302;28;19932;-69
2022/07/04 07:15:49;;;;;;;;;;;;;;;27.09;36.78;99798.53;3158125;28;19955;-67
2022/07/04 07:17:21;;;;;;;;;;;;;;;27.16;36.29;99802.22;3158254;28;19993;-68
2022/07/04 07:18:52;;;;;;;;;;;;;;;27.15;36.25;99803.22;3157806;28;20571;-67
2022/07/04 07:20:24;;;;;;;;;;;;;;;27.19;36.53;99799.19;3158162;28;19939;-67
2022/07/04 07:21:56;;;;;;;;;;;;;;;27.26;36.76;99800.16;3158354;28;19932;-67
2022/07/04 07:23:27;;;;;;;;;;;;;;;27.37;36.80;99793.56;3158169;28;20344;-67
2022/07/04 07:24:59;;;;;;;;;;;;;;;27.48;36.34;99800.31;3158300;28;20044;-67
2022/07/04 07:26:30;;;;;;;;;;;;;;;27.53;36.41;99796.09;3157748;28;19981;-67
2022/07/04 07:28:02;;;;;;;;;;;;;;;27.61;36.21;99793.38;3158106;28;19924;-67
2022/07/04 07:29:35;;;;;;;;;;;;;;;27.65;35.72;99791.16;3158060;28;19924;-67
2022/07/04 07:31:07;;;;;;;;;;;;;;;27.70;35.92;99788.78;3158321;28;19947;-67
2022/07/04 07:32:39;;;;;;;;;;;;;;;27.77;35.92;99789.72;3158372;28;19946;-67
2022/07/04 07:34:10;;;;;;;;;;;;;;;27.84;35.79;99793.38;3158100;28;20317;-67
2022/07/04 07:35:42;;;;;;;;;;;;;;;27.87;35.57;99793.00;3157879;28;20190;-67
2022/07/04 07:37:14;;;;;;;;;;;;;;;27.90;35.63;99786.47;3158474;28;19925;-67
2022/07/04 07:38:45;;;;;;;;;;;;;;;27.93;34.96;99791.47;3158228;28;20327;-67
2022/07/04 07:40:17;;;;;;;;;;;;;;;27.89;35.36;99784.78;3157940;28;20011;-67
2022/07/04 07:41:48;;;;;;;;;;;;;;;27.87;35.00;99782.31;3158319;28;19924;-67
2022/07/04 07:43:20;;;;;;;;;;;;;;;27.86;35.28;99787.81;3158395;28;19924;-67
2022/07/04 07:44:53;;;;;;;;;;;;;;;27.90;35.52;99784.63;3158100;28;19924;-68
2022/07/04 07:46:25;;;;;;;;;;;;;;;27.98;35.58;99789.06;3165198;28;19924;-67
2022/07/04 07:47:57;;;;;;;;;;;;;;;28.06;35.84;99780.09;3158359;28;19932;-67
2022/07/04 07:49:28;;;;;;;;;;;;;;;28.17;35.74;99789.53;3157918;28;19932;-68
2022/07/04 07:51:00;;;;;;;;;;;;;;;28.26;35.61;99789.28;3158362;28;19928;-68
2022/07/04 07:52:31;;;;;;;;;;;;;;;28.35;35.51;99785.47;3158139;28;20410;-67
2022/07/04 07:54:03;;;;;;;;;;;;;;;28.44;35.28;99790.78;3157623;28;19924;-67
2022/07/04 07:55:35;;;;;;;;;;;;;;;28.47;34.85;99779.69;3158177;28;20120;-68
2022/07/04 07:57:06;;;;;;;;;;;;;;;28.54;35.09;99780.59;3158065;28;19928;-68
2022/07/04 07:58:38;;;;;;;;;;;;;;;28.63;34.84;99771.44;3157819;28;20018;-67
2022/07/04 08:00:12;;;;;;;;;;;;;;;28.69;34.90;99776.06;3156675;28;20382;-68
2022/07/04 08:01:44;;;;;;;;;;;;;;;28.75;34.76;99780.69;3157942;28;19998;-67
2022/07/04 08:05:04;;;;;;;;;;;;;;;28.96;34.58;99773.72;3145647;28;20434;-68
2022/07/04 08:06:35;;;;;;;;;;;;;;;29.00;33.61;99774.97;3158260;28;19931;-68
2022/07/04 08:08:09;;;;;;;;;;;;;;;29.09;33.81;99776.56;3158965;28;19950;-67